那覇空港の過去48時間の天気

那覇空港 (Naha)

現在時刻: 7/16 15:36 JST (7/16 06:36 UTC) 以下の時間は現地時間です。

過去48時間のMETAR気象情報
時間 風向 風速(m/s) 視程 気温(℃) 湿度(%) 気圧(hPa) 天気現象
16 15:00 6 10km以上 31 70 1008
16 14:30 6 10km以上 31 70 1008
16 14:00 6 10km以上 31 70 1008
16 13:30 5 10km以上 31 70 1008
16 13:00 6 10km以上 31 70 1008
16 12:30 6 10km以上 30 75 1009
16 12:00 5 10km以上 30 75 1009 周辺でしゅう雨
16 11:30 5 10km以上 30 75 1009 周辺でしゅう雨
16 11:00 東南東 5 10km以上 30 75 1009
16 10:30 5 10km以上 30 75 1009
16 10:00 4 10km以上 30 75 1009
16 09:30 5 10km以上 29 79 1009
16 09:00 5 10km以上 29 79 1009
16 08:30 4 10km以上 29 79 1009
16 08:00 4 10km以上 29 79 1009
16 07:30 5 10km以上 28 84 1009 周辺でしゅう雨
16 07:19 4 10km以上 28 84 1009 弱いしゅう雨
16 07:00 3 10km以上 28 84 1009 しゅう雨
16 06:30 3 10km以上 28 84 1009 周辺でしゅう雨
16 06:00 3 10km以上 27 89 1008 周辺でしゅう雨
16 05:30 3 10km以上 28 84 1008 しゅう雨
16 05:00 4 10km以上 28 84 1008 弱いしゅう雨
16 04:30 4 10km以上 28 84 1008 弱いしゅう雨
16 04:00 4 10km以上 28 84 1008 周辺でしゅう雨
16 03:30 4 10km以上 28 84 1008 弱いしゅう雨
16 03:00 東北東 5 10km以上 28 84 1008 周辺でしゅう雨
16 02:30 4 10km以上 28 84 1008 弱いしゅう雨
16 02:00 4 10km以上 28 84 1008
16 01:30 5 10km以上 28 84 1008
16 01:00 4 10km以上 28 84 1008
16 00:30 4 10km以上 28 84 1009
16 00:00 5 10km以上 28 84 1009
15 23:30 5 10km以上 28 84 1009
15 23:00 東北東 5 10km以上 29 79 1009 周辺でしゅう雨
15 22:30 東北東 6 10km以上 29 74 1010
15 22:00 5 10km以上 29 74 1009 弱いしゅう雨
15 21:30 東北東 7 10km以上 29 74 1009
15 21:00 6 10km以上 29 74 1009
15 20:30 東北東 7 10km以上 29 74 1008
15 20:00 東北東 7 10km以上 29 74 1008
15 19:30 東北東 6 10km以上 29 74 1008
15 19:00 東北東 7 10km以上 29 74 1008
15 18:30 7 10km以上 29 74 1008
15 18:00 東北東 8 10km以上 30 70 1008
15 17:30 6 10km以上 30 70 1008
15 17:00 東北東 8 10km以上 30 70 1008
15 16:30 6 10km以上 31 66 1008
15 16:00 7 10km以上 31 66 1008
15 15:30 7 10km以上 31 62 1008
15 15:00 6 10km以上 31 62 1008
15 14:30 7 10km以上 31 62 1009
15 14:00 7 10km以上 31 62 1008
15 13:30 6 10km以上 31 62 1009
15 13:00 東北東 6 10km以上 31 62 1009
15 12:30 5 10km以上 31 59 1009
15 12:00 5 10km以上 31 62 1010
15 11:30 4 10km以上 31 62 1010
15 11:00 4 10km以上 31 62 1010
15 10:30 5 10km以上 30 62 1010
15 10:00 東北東 5 10km以上 30 59 1010
15 09:30 5 10km以上 30 66 1010
15 09:00 4 10km以上 29 70 1010
15 08:30 東北東 5 10km以上 29 70 1010
15 08:00 東北東 4 10km以上 28 79 1010
15 07:30 東北東 3 10km以上 28 74 1009
15 07:00 3 10km以上 28 74 1010
15 06:30 東北東 3 10km以上 27 84 1009
15 06:00 2 10km以上 27 84 1009
15 05:30 2 10km以上 27 79 1009 弱いしゅう雨
15 05:00 2 10km以上 27 79 1009
15 04:30 2 10km以上 27 84 1009 弱いしゅう雨
ROAH 160600Z 08011KT 050V120 9999 FEW015 SCT020 31/25 Q1008 RMK 1CU015 4CU020 A2978
ROAH 160530Z 10012KT 060V130 9999 FEW015 SCT020 31/25 Q1008 RMK 1CU015 4CU020 A2979
ROAH 160500Z 08012KT 040V110 9999 FEW015 SCT020 31/25 Q1008 RMK 1CU015 4CU020 A2979
ROAH 160430Z 08010KT 010V130 9999 FEW015 SCT020 31/25 Q1008 RMK 1CU015 4CU020 A2978
ROAH 160400Z 08011KT 050V120 9999 FEW015 SCT020 31/25 Q1008 RMK 2CU015 4CU020 A2979
ROAH 160330Z 09012KT 050V120 9999 FEW015 BKN020 30/25 Q1009 RMK 2CU015 5CU020 A2980
ROAH 160300Z 09010KT 050V120 9999 VCSH SCT015 BKN020 30/25 Q1009 RMK 3CU015 5CU020 A2980
ROAH 160230Z 09010KT 050V140 9999 VCSH SCT015 BKN020 30/25 Q1009 RMK 3CU015 5CU020 A2981
ROAH 160200Z 11010KT 060V150 9999 FEW015 BKN020 30/25 Q1009 RMK 2CU015 5CU020 A2981
ROAH 160130Z 09009KT 050V140 9999 FEW015 BKN020 30/25 Q1009 RMK 2CU015 6CU020 A2982
ROAH 160100Z 10008KT 050V130 9999 SCT015 BKN020 30/25 Q1009 RMK 3CU015 5CU020 A2982
ROAH 160030Z 09009KT 050V130 9999 SCT012 BKN020 29/25 Q1009 RMK 3CU012 5CU020 A2982
ROAH 160000Z 09009KT 060V130 9999 SCT012 BKN020 29/25 Q1009 RMK 3CU012 5CU020 A2982
ROAH 152330Z 09008KT 050V120 9999 FEW012 BKN020 29/25 Q1009 RMK 2CU012 5CU020 A2981
ROAH 152300Z 09008KT 040V150 9999 SCT010 BKN020 29/25 Q1009 RMK 3CU010 5CU020 A2981
ROAH 152230Z 09009KT 060V120 9999 VCSH FEW010 SCT020 28/25 Q1009 RMK 1CU010 4CU020 A2981
ROAH 152219Z 09007KT 050V130 9999 -SHRA FEW010 SCT020 28/25 Q1009 RMK 1CU010 4CU020 A2981
ROAH 152200Z 08006KT 040V130 9999 SHRA FEW010 SCT020 FEW025TCU 28/25 Q1009 RMK 1CU010 3CU020 1TCU025 A2981 TCU 7KM E MOV NW
ROAH 152130Z 10006KT 060V130 9999 VCSH FEW009 SCT020 28/25 Q1009 RMK 1CU009 3CU020 A2980
ROAH 152100Z 10006KT 050V130 9999 VCSH FEW009 SCT030 27/25 Q1008 RMK 2CU009 4CU030 A2979
ROAH 152030Z 10005KT 060V130 9999 SHRA SCT012 SCT050 28/25 Q1008 RMK 3CU012 4SC050 A2979
ROAH 152000Z 09007KT 050V120 9999 -SHRA FEW012 SCT020 28/25 Q1008 RMK 2CU012 3CU020 A2978
ROAH 151930Z 09007KT 050V120 9999 -SHRA FEW012 SCT020 28/25 Q1008 RMK 2CU012 4CU020 A2978
ROAH 151900Z 10008KT 050V120 9999 VCSH FEW012 SCT020 28/25 Q1008 RMK 2CU012 4CU020 A2977
ROAH 151830Z 09008KT 050V120 9999 -SHRA FEW012 SCT020 28/25 Q1008 RMK 2CU012 4CU020 A2978
ROAH 151800Z 07009KT 040V130 9999 VCSH SCT012 28/25 Q1008 RMK 4CU012 A2978
ROAH 151730Z 08008KT 050V110 9999 -SHRA SCT012 BKN020 28/25 Q1008 RMK 4CU012 5CU020 A2978
ROAH 151700Z 08008KT 030V110 9999 SCT012 SCT020 28/25 Q1008 RMK 4CU012 4CU020 A2979
ROAH 151630Z 09009KT 050V130 9999 SCT012 SCT020 28/25 Q1008 RMK 4CU012 4CU020 A2979
ROAH 151600Z 09008KT 050V140 9999 SCT011 SCT020 28/25 Q1008 RMK 3CU011 4CU020 A2979
ROAH 151530Z 08008G18KT 040V120 9999 SCT012 28/25 Q1009 RMK 4CU012 A2980
ROAH 151500Z 08010KT 040V140 9999 SCT013 28/25 Q1009 RMK 4CU013 A2980
ROAH 151430Z 08009KT 040V120 9999 BKN014 28/25 Q1009 RMK 5CU014 A2981
ROAH 151400Z 07010KT 9999 VCSH BKN015 29/25 Q1009 RMK 5CU015 A2982
ROAH 151330Z 06012KT 9999 SCT015 SCT040 29/24 Q1010 RMK 4CU015 4SC040 A2982
ROAH 151300Z 08010KT 050V150 9999 -SHRA SCT015 SCT025 29/24 Q1009 RMK 3CU015 4CU025 A2982
ROAH 151230Z 07013KT 9999 BKN015 29/24 Q1009 RMK 5CU015 A2981
ROAH 151200Z 08012KT 9999 SCT015 29/24 Q1009 RMK 4CU015 A2979
ROAH 151130Z 07014KT 040V100 9999 SCT015 29/24 Q1008 RMK 4CU015 A2979
ROAH 151100Z 07013KT 9999 SCT015 29/24 Q1008 RMK 4CU015 A2979
ROAH 151030Z 07012KT 050V110 9999 SCT016 29/24 Q1008 RMK 4CU016 A2978
ROAH 151000Z 07014G24KT 9999 SCT018 29/24 Q1008 RMK 4CU018 A2978
ROAH 150930Z 08014KT 050V130 9999 SCT018 29/24 Q1008 RMK 4CU018 A2978
ROAH 150900Z 07015KT 040V110 9999 SCT018 30/24 Q1008 RMK 4CU018 A2978
ROAH 150830Z 08012KT 050V120 9999 SCT020 30/24 Q1008 RMK 4CU020 A2978
ROAH 150800Z 07015KT 040V110 9999 SCT020 30/24 Q1008 RMK 4CU020 A2978
ROAH 150730Z 09011G22KT 050V120 9999 SCT020 31/24 Q1008 RMK 4CU020 A2978
ROAH 150700Z 08014KT 050V120 9999 SCT020 31/24 Q1008 RMK 4CU020 A2978
ROAH 150630Z 09013KT 050V130 9999 SCT020 31/23 Q1008 RMK 4CU020 A2978
ROAH 150600Z 08012KT 050V120 9999 SCT020 31/23 Q1008 RMK 4CU020 A2979
ROAH 150530Z 08013KT 050V170 9999 SCT023 31/23 Q1009 RMK 3CU023 A2979
ROAH 150500Z 08013KT 050V110 9999 SCT023 31/23 Q1008 RMK 3CU023 A2979
ROAH 150430Z 09011KT 050V130 9999 SCT027 SCT060 31/23 Q1009 RMK 3CU027 4SC060 A2980
ROAH 150400Z 07012KT 050V140 9999 SCT027 BKN060 31/23 Q1009 RMK 3CU027 5SC060 A2981
ROAH 150330Z 09010KT 050V160 9999 SCT027 31/22 Q1009 RMK 3CU027 A2982
ROAH 150300Z 08010KT 040V130 9999 SCT027 31/23 Q1010 RMK 3CU027 A2983
ROAH 150230Z 08008KT 030V140 9999 FEW027 31/23 Q1010 RMK 2CU027 A2983
ROAH 150200Z 10008KT 050V130 9999 FEW025 31/23 Q1010 RMK 2CU025 A2984
ROAH 150130Z 08010KT 030V130 9999 FEW025 30/22 Q1010 RMK 2CU025 A2984
ROAH 150100Z 07009KT 020V110 9999 SCT022 30/21 Q1010 RMK 3CU022 A2984
ROAH 150030Z 08009KT 050V110 9999 SCT020 30/23 Q1010 RMK 4CU020 A2984
ROAH 150000Z 09007KT 050V130 9999 BKN020 29/23 Q1010 RMK 5CU020 A2983
ROAH 142330Z 06009KT 9999 BKN016 29/23 Q1010 RMK 5CU016 A2983
ROAH 142300Z 07008KT 050V120 9999 SCT014 28/24 Q1010 RMK 4CU014 A2983
ROAH 142230Z 07006KT 040V120 9999 SCT014 28/23 Q1009 RMK 3CU014 A2982
ROAH 142200Z 09005KT 050V140 9999 FEW014 28/23 Q1010 RMK 2CU014 A2982
ROAH 142130Z 07006KT 9999 FEW014 27/24 Q1009 RMK 2CU014 A2982
ROAH 142100Z 08003KT 050V120 9999 SCT014 27/24 Q1009 RMK 3CU014 A2981
ROAH 142030Z 10004KT 070V130 9999 -SHRA FEW014 27/23 Q1009 RMK 2CU014 A2981
ROAH 142000Z 10004KT 9999 FEW012 SCT/// 27/23 Q1009
ROAH 141930Z 10004KT 070V130 9999 -SHRA FEW012 BKN/// 27/24 Q1009